createdAt,value
2019-02-04T00:01:56.689Z,6.59
2019-02-04T00:07:04.876Z,9.15
2019-02-04T00:12:12.786Z,10.71
2019-02-04T00:17:21.409Z,10.32
2019-02-04T00:22:29.444Z,8.85
2019-02-04T00:27:37.741Z,9.59
2019-02-04T00:32:46.032Z,8.75
2019-02-04T00:37:54.323Z,8.55
2019-02-04T00:43:02.418Z,9.03
2019-02-04T00:48:11.081Z,7.91
2019-02-04T00:53:19.129Z,7.43
2019-02-04T00:58:27.809Z,9.83
2019-02-04T01:03:35.816Z,9.55
2019-02-04T01:08:44.045Z,8.20
2019-02-04T01:13:52.232Z,7.63
2019-02-04T01:19:00.400Z,6.85
2019-02-04T01:24:08.858Z,7.78
2019-02-04T01:29:17.148Z,8.81
2019-02-04T01:34:25.346Z,6.86
2019-02-04T01:39:33.659Z,8.40
2019-02-04T01:44:42.045Z,9.33
2019-02-04T01:49:50.253Z,9.48
2019-02-04T01:54:58.425Z,8.50
2019-02-04T02:00:06.694Z,10.77
2019-02-04T02:05:15.276Z,8.06
2019-02-04T02:10:24.089Z,7.65
2019-02-04T02:15:32.100Z,7.64
2019-02-04T02:20:40.214Z,6.47
2019-02-04T02:25:48.474Z,7.35
2019-02-04T02:30:57.029Z,7.20
2019-02-04T02:36:05.277Z,8.38
2019-02-04T02:41:13.460Z,8.57
2019-02-04T02:46:22.044Z,7.78
2019-02-04T02:51:30.334Z,8.80
2019-02-04T02:56:38.514Z,7.99
2019-02-04T03:01:46.741Z,8.45
2019-02-04T03:06:54.845Z,8.91
2019-02-04T03:12:03.038Z,10.33
2019-02-04T03:17:11.613Z,8.39
2019-02-04T03:22:19.738Z,10.00
2019-02-04T03:27:27.909Z,10.36
2019-02-04T03:32:36.496Z,9.67
2019-02-04T03:37:44.616Z,11.46
2019-02-04T03:42:52.868Z,9.77
2019-02-04T03:48:06.738Z,11.54
2019-02-04T03:53:08.721Z,10.30
2019-02-04T03:58:16.991Z,11.60
2019-02-04T04:03:25.237Z,11.12
2019-02-04T04:08:33.782Z,10.00
2019-02-04T04:13:41.997Z,10.39
2019-02-04T04:18:50.185Z,11.44
2019-02-04T04:23:58.749Z,8.68
2019-02-04T04:29:06.908Z,9.11
2019-02-04T04:34:15.093Z,8.50
2019-02-04T04:39:25.312Z,8.61
2019-02-04T04:44:23.361Z,8.41
2019-02-04T04:49:32.016Z,9.93
2019-02-04T04:54:40.243Z,10.57
2019-02-04T04:59:48.412Z,11.79
2019-02-04T05:04:56.795Z,10.65
2019-02-04T05:10:05.110Z,9.21
2019-02-04T05:15:13.648Z,10.71
2019-02-04T05:20:22.097Z,9.32
2019-02-04T05:25:30.337Z,8.57
2019-02-04T05:30:38.944Z,10.56
2019-02-04T05:35:47.817Z,9.53
2019-02-04T05:40:56.233Z,10.98
2019-02-04T05:46:04.493Z,14.83
2019-02-04T05:51:12.738Z,16.72
2019-02-04T05:56:21.345Z,12.62
2019-02-04T06:01:30.296Z,10.07
2019-02-04T06:06:39.236Z,10.62
2019-02-04T06:11:47.465Z,8.67
2019-02-04T06:16:55.812Z,9.56
2019-02-04T06:22:04.006Z,9.15
2019-02-04T06:27:12.737Z,9.20
2019-02-04T06:32:21.240Z,8.82
2019-02-04T06:37:29.508Z,8.59
2019-02-04T06:42:37.920Z,11.72
2019-02-04T06:47:46.361Z,10.66
2019-02-04T06:52:54.603Z,8.57
2019-02-04T06:58:02.853Z,8.88
2019-02-04T07:03:11.021Z,9.34
2019-02-04T07:08:19.220Z,10.85
2019-02-04T07:13:27.282Z,11.34
2019-02-04T07:18:35.566Z,12.46
2019-02-04T07:23:43.924Z,11.60
2019-02-04T07:28:52.092Z,13.29
2019-02-04T07:34:00.280Z,19.32
2019-02-04T07:39:04.276Z,13.48
2019-02-04T07:44:12.248Z,16.27
2019-02-04T07:49:20.177Z,13.72
2019-02-04T07:54:28.134Z,14.36
2019-02-04T07:59:36.095Z,16.73
2019-02-04T08:04:44.029Z,17.69
2019-02-04T08:09:52.144Z,17.39
2019-02-04T08:15:00.194Z,16.55
2019-02-04T08:20:08.373Z,17.76
2019-02-04T08:25:16.416Z,17.20
2019-02-04T08:30:24.560Z,18.59
2019-02-04T08:35:32.841Z,17.83
2019-02-04T08:40:41.204Z,20.01
2019-02-04T08:45:49.354Z,20.49
2019-02-04T08:50:57.678Z,19.25
2019-02-04T08:56:05.771Z,21.29
2019-02-04T09:01:13.974Z,22.81
2019-02-04T09:06:21.993Z,20.97
2019-02-04T09:11:30.497Z,21.31
2019-02-04T09:16:38.074Z,23.02
2019-02-04T09:21:46.313Z,23.79
2019-02-04T09:26:55.127Z,24.35
2019-02-04T09:32:03.263Z,22.82
2019-02-04T09:37:11.449Z,22.71
2019-02-04T09:42:19.699Z,24.57
2019-02-04T09:47:27.805Z,24.17
2019-02-04T09:52:35.990Z,24.65
2019-02-04T09:57:44.125Z,23.48
2019-02-04T10:02:52.409Z,25.62
2019-02-04T10:08:00.493Z,24.56
2019-02-04T10:13:08.570Z,26.15
2019-02-04T10:18:16.752Z,24.47
2019-02-04T10:23:23.473Z,24.12
2019-02-04T10:28:31.646Z,23.74
2019-02-04T10:33:40.003Z,23.82
2019-02-04T10:38:48.140Z,22.82
2019-02-04T10:43:56.356Z,22.08
2019-02-04T10:49:04.609Z,24.27
2019-02-04T10:54:12.840Z,22.08
2019-02-04T10:59:20.977Z,20.07
2019-02-04T11:04:29.160Z,19.79
2019-02-04T11:09:37.314Z,21.53
2019-02-04T11:14:45.553Z,19.59
2019-02-04T11:19:53.992Z,20.07
2019-02-04T11:25:02.270Z,22.65
2019-02-04T11:30:10.493Z,21.36
2019-02-04T11:35:18.757Z,19.14
2019-02-04T11:40:26.954Z,19.45
2019-02-04T11:45:35.054Z,20.54
2019-02-04T11:50:43.717Z,20.40
2019-02-04T11:55:51.969Z,18.20
2019-02-04T12:01:00.236Z,18.11
2019-02-04T12:06:08.365Z,17.98
2019-02-04T12:11:16.517Z,18.62
2019-02-04T12:16:24.860Z,17.57
2019-02-04T12:21:33.070Z,18.08
2019-02-04T12:26:41.849Z,15.64
2019-02-04T12:31:50.054Z,15.59
2019-02-04T12:36:58.840Z,17.21
2019-02-04T12:42:07.005Z,15.63
2019-02-04T12:47:15.171Z,13.74
2019-02-04T12:52:23.405Z,16.51
2019-02-04T12:57:31.544Z,12.93
2019-02-04T13:02:39.717Z,13.92
2019-02-04T13:07:47.949Z,14.37
2019-02-04T13:12:56.041Z,12.61
2019-02-04T13:18:04.355Z,15.26
2019-02-04T13:23:12.540Z,14.11
2019-02-04T13:28:20.666Z,13.07
2019-02-04T13:33:28.677Z,11.70
2019-02-04T13:38:36.786Z,13.20
2019-02-04T13:43:44.943Z,13.04
2019-02-04T13:48:53.172Z,11.55
2019-02-04T13:54:01.328Z,13.28
2019-02-04T13:59:09.582Z,11.22
2019-02-04T14:04:17.650Z,12.59
2019-02-04T14:09:25.859Z,10.48
2019-02-04T14:14:34.137Z,10.30
2019-02-04T14:19:42.289Z,9.87
2019-02-04T14:24:50.381Z,11.23
2019-02-04T14:29:58.571Z,9.78
2019-02-04T14:35:06.785Z,9.25
2019-02-04T14:40:18.485Z,10.55
2019-02-04T14:45:22.675Z,11.01
2019-02-04T14:50:31.276Z,9.75
2019-02-04T14:55:39.450Z,9.55
2019-02-04T15:00:47.606Z,8.42
2019-02-04T15:05:56.038Z,10.08
2019-02-04T15:11:04.207Z,9.73
2019-02-04T15:16:12.420Z,12.71
2019-02-04T15:21:20.595Z,11.43
2019-02-04T15:26:28.662Z,9.52
2019-02-04T15:31:36.958Z,9.88
2019-02-04T15:36:45.439Z,9.10
2019-02-04T15:41:53.620Z,9.81
2019-02-04T15:47:02.074Z,9.93
2019-02-04T15:52:10.802Z,11.16
2019-02-04T15:57:19.299Z,8.48
2019-02-04T16:02:28.074Z,8.72
2019-02-04T16:07:36.293Z,8.23
2019-02-04T16:12:47.604Z,8.61
2019-02-04T16:17:52.973Z,9.33
2019-02-04T16:23:01.264Z,8.75
2019-02-04T16:28:09.684Z,9.45
2019-02-04T16:33:17.978Z,8.75
2019-02-04T16:38:26.248Z,8.68
2019-02-04T16:43:33.909Z,9.23
2019-02-04T16:48:42.146Z,9.24
2019-02-04T16:53:50.244Z,9.73
2019-02-04T16:58:58.637Z,10.11
2019-02-04T17:04:06.836Z,9.76
2019-02-04T17:09:15.151Z,11.13
2019-02-04T17:14:23.565Z,8.93
2019-02-04T17:19:32.089Z,9.46
2019-02-04T17:24:40.442Z,9.43
2019-02-04T17:29:48.579Z,9.42
2019-02-04T17:34:56.828Z,9.98
2019-02-04T17:40:05.066Z,9.05
2019-02-04T17:45:13.212Z,9.32
2019-02-04T17:50:21.462Z,9.55
2019-02-04T17:55:29.897Z,9.51
2019-02-04T18:00:38.183Z,9.47
2019-02-04T18:05:46.755Z,9.01
2019-02-04T18:10:55.249Z,10.54
2019-02-04T18:16:03.489Z,9.86
2019-02-04T18:21:11.766Z,9.36
2019-02-04T18:26:19.932Z,8.58
2019-02-04T18:31:28.198Z,10.54
2019-02-04T18:36:36.525Z,8.87
2019-02-04T18:41:45.078Z,8.62
2019-02-04T18:46:54.129Z,10.05
2019-02-04T18:48:13.350Z,10.82
2019-02-04T18:53:11.789Z,9.63
2019-02-04T18:58:19.998Z,9.87
2019-02-04T19:03:28.197Z,9.59
2019-02-04T19:08:36.346Z,10.13
2019-02-04T19:13:44.541Z,10.83
2019-02-04T19:18:52.862Z,10.55
2019-02-04T19:24:09.264Z,11.56
2019-02-04T19:29:09.527Z,13.11
2019-02-04T19:34:18.069Z,11.91
2019-02-04T19:39:26.656Z,12.06
2019-02-04T19:44:34.885Z,11.53
2019-02-04T19:49:44.155Z,11.54
2019-02-04T19:54:52.617Z,9.55
2019-02-04T20:00:00.898Z,11.77
2019-02-04T20:05:09.423Z,11.20
2019-02-04T20:10:17.474Z,9.98
2019-02-04T20:15:25.937Z,10.23
2019-02-04T20:20:34.193Z,10.91
2019-02-04T20:25:42.837Z,10.24
2019-02-04T20:30:50.993Z,9.71
2019-02-04T20:35:59.208Z,11.49
2019-02-04T20:41:07.529Z,9.92
2019-02-04T20:46:15.934Z,10.62
2019-02-04T20:51:24.634Z,9.95
2019-02-04T20:56:33.926Z,9.91
2019-02-04T21:01:42.554Z,10.52
2019-02-04T21:06:56.197Z,11.31
2019-02-04T21:11:58.792Z,10.77
2019-02-04T21:17:07.183Z,11.12
2019-02-04T21:22:15.582Z,14.15
2019-02-04T21:27:24.159Z,11.00
2019-02-04T21:32:32.712Z,11.68
2019-02-04T21:37:40.937Z,11.51
2019-02-04T21:42:49.428Z,12.98
2019-02-04T21:47:57.920Z,12.65
2019-02-04T21:53:06.349Z,12.22
2019-02-04T21:58:14.565Z,11.65
2019-02-04T22:03:22.677Z,12.23
2019-02-04T22:08:30.865Z,13.66
2019-02-04T22:13:38.983Z,11.45
2019-02-04T22:18:47.272Z,12.03
2019-02-04T22:23:55.430Z,12.35
2019-02-04T22:29:03.944Z,11.51
2019-02-04T22:34:12.031Z,12.09
2019-02-04T22:39:20.511Z,12.90
2019-02-04T22:44:28.513Z,12.94
2019-02-04T22:49:36.934Z,13.68
2019-02-04T22:54:45.554Z,14.89
2019-02-04T22:59:53.712Z,14.68
2019-02-04T23:05:01.868Z,14.69
2019-02-04T23:10:10.053Z,14.32
2019-02-04T23:15:18.373Z,14.60
2019-02-04T23:20:26.533Z,14.84
2019-02-04T23:25:42.973Z,14.96
2019-02-04T23:30:42.868Z,14.48
2019-02-04T23:35:51.510Z,14.47
2019-02-04T23:41:00.393Z,14.85
2019-02-04T23:46:08.470Z,15.53
2019-02-04T23:51:16.768Z,15.08
2019-02-04T23:56:25.245Z,14.62
